Time;durP1;ratioP1;P1;durP2;ratioP2;P2;SDS_P1;SDS_P2;PMS_P1;PMS_P2;Temp;Humidity;BMP_temperature;BMP_pressure;BME280_temperature;BME280_humidity;BME280_pressure;Samples;Min_cycle;Max_cycle;Signal;HPM_P1;HPM_P2
2023/10/03 00:00:27;;;;;;;18.30;11.07;;;;;;;12.61;100.00;98231.28;6259798;28;20234;-59
2023/10/03 00:03:29;;;;;;;15.87;11.23;;;;;;;12.50;100.00;98223.31;6262261;28;20606;-59
2023/10/03 00:06:33;;;;;;;17.83;10.87;;;;;;;12.49;100.00;98222.50;6254579;28;20241;-58
2023/10/03 00:09:36;;;;;;;15.33;10.60;;;;;;;12.44;100.00;98214.41;6256151;28;20234;-58
2023/10/03 00:12:38;;;;;;;14.80;10.03;;;;;;;12.46;100.00;98217.63;6255294;28;20284;-59
2023/10/03 00:15:44;;;;;;;13.43;9.47;;;;;;;12.47;100.00;98211.25;6254846;28;20235;-59
2023/10/03 00:18:47;;;;;;;14.43;9.30;;;;;;;12.46;100.00;98204.25;6260771;28;20245;-58
2023/10/03 00:21:49;;;;;;;16.20;10.33;;;;;;;12.51;100.00;98208.88;6255258;28;20246;-59
2023/10/03 00:24:52;;;;;;;14.43;9.97;;;;;;;12.48;100.00;98206.72;6256205;28;20284;-60
2023/10/03 00:27:59;;;;;;;16.23;10.07;;;;;;;12.44;100.00;98203.72;6254993;28;20715;-60
2023/10/03 00:31:09;;;;;;;14.03;9.77;;;;;;;12.36;100.00;98201.41;6237858;28;20240;-60
2023/10/03 00:34:13;;;;;;;15.87;10.13;;;;;;;12.32;100.00;98194.97;6261285;28;20704;-59
2023/10/03 00:37:15;;;;;;;13.90;10.13;;;;;;;12.29;100.00;98193.56;6256740;28;20227;-59
2023/10/03 00:43:25;;;;;;;13.73;9.20;;;;;;;12.31;100.00;98190.63;6260752;28;20246;-57
2023/10/03 00:46:30;;;;;;;16.37;10.13;;;;;;;12.27;100.00;98181.50;6258939;28;20589;-58
2023/10/03 00:49:36;;;;;;;14.23;10.20;;;;;;;12.29;100.00;98184.75;6261142;28;20219;-57
2023/10/03 00:52:41;;;;;;;13.90;10.23;;;;;;;12.25;100.00;98178.25;6238932;28;20231;-59
2023/10/03 00:55:44;;;;;;;11.93;9.00;;;;;;;12.26;100.00;98182.53;6255197;28;20369;-58
2023/10/03 00:58:47;;;;;;;14.70;9.50;;;;;;;12.25;100.00;98168.38;6255023;28;20413;-59
2023/10/03 01:01:49;;;;;;;12.67;8.67;;;;;;;12.24;100.00;98180.13;6237234;28;20326;-60
2023/10/03 01:04:54;;;;;;;13.13;9.30;;;;;;;12.11;100.00;98157.16;6242637;28;20329;-59
2023/10/03 01:07:57;;;;;;;15.67;9.83;;;;;;;12.18;100.00;98166.91;6234440;28;20332;-58
2023/10/03 01:10:59;;;;;;;14.70;10.43;;;;;;;12.12;100.00;98160.69;6254582;28;20239;-57
2023/10/03 01:14:05;;;;;;;14.40;10.07;;;;;;;12.08;100.00;98162.19;6254475;28;20318;-60
2023/10/03 01:17:08;;;;;;;12.13;8.37;;;;;;;12.09;100.00;98161.16;6235556;28;20235;-60
2023/10/03 01:20:23;;;;;;;14.47;9.53;;;;;;;12.07;100.00;98164.06;6242576;28;20238;-60
2023/10/03 01:23:30;;;;;;;15.97;10.10;;;;;;;12.03;100.00;98160.25;6255370;28;20239;-60
2023/10/03 01:26:33;;;;;;;16.13;10.33;;;;;;;12.03;100.00;98157.56;6258664;28;20250;-60
2023/10/03 01:29:35;;;;;;;14.10;10.53;;;;;;;12.02;100.00;98152.44;6255320;28;20284;-59
2023/10/03 01:32:45;;;;;;;13.40;9.43;;;;;;;11.99;100.00;98155.63;6255889;28;20296;-60
2023/10/03 01:35:48;;;;;;;16.13;10.17;;;;;;;11.93;100.00;98145.91;6255865;28;20227;-58
2023/10/03 01:38:50;;;;;;;13.27;9.07;;;;;;;11.90;100.00;98143.69;6247295;28;20238;-60
2023/10/03 01:41:54;;;;;;;12.50;8.87;;;;;;;11.87;100.00;98139.63;6236712;28;20250;-60
2023/10/03 01:44:56;;;;;;;14.73;9.00;;;;;;;11.83;100.00;98138.50;6253379;28;20231;-58
2023/10/03 01:47:59;;;;;;;12.83;9.10;;;;;;;11.81;100.00;98145.91;6253852;28;20265;-58
2023/10/03 01:51:02;;;;;;;11.63;7.67;;;;;;;11.80;100.00;98141.63;6254815;28;20233;-60
2023/10/03 01:54:05;;;;;;;12.07;8.47;;;;;;;11.80;100.00;98133.59;6221332;28;20292;-59
2023/10/03 01:57:08;;;;;;;14.80;9.73;;;;;;;11.75;100.00;98134.31;6254602;28;20230;-59
2023/10/03 02:00:25;;;;;;;12.50;9.13;;;;;;;11.72;100.00;98132.13;6257787;28;20254;-56
2023/10/03 02:03:29;;;;;;;14.33;9.63;;;;;;;11.65;100.00;98118.13;6232570;28;20233;-59
2023/10/03 02:06:32;;;;;;;13.80;8.70;;;;;;;11.56;100.00;98120.34;6254213;28;20223;-60
2023/10/03 02:09:35;;;;;;;15.03;10.03;;;;;;;11.54;100.00;98114.44;6236001;28;20309;-59
2023/10/03 02:12:37;;;;;;;14.33;9.07;;;;;;;11.54;100.00;98114.44;6254110;28;20240;-59
2023/10/03 02:15:44;;;;;;;14.73;10.10;;;;;;;11.39;100.00;98092.00;6256362;28;20227;-60
2023/10/03 02:18:46;;;;;;;15.13;9.10;;;;;;;11.52;100.00;98113.03;6253419;28;20240;-60
2023/10/03 02:21:59;;;;;;;12.97;9.30;;;;;;;11.53;100.00;98106.69;6239047;28;20231;-60
2023/10/03 02:25:02;;;;;;;15.03;9.30;;;;;;;11.51;100.00;98106.09;6235242;28;20231;-59
2023/10/03 02:28:07;;;;;;;14.37;9.60;;;;;;;11.45;100.00;98096.38;6235523;28;20239;-55
2023/10/03 02:31:10;;;;;;;12.30;9.07;;;;;;;11.49;100.00;98097.53;6244824;28;20239;-59
2023/10/03 02:34:14;;;;;;;14.97;10.13;;;;;;;11.32;100.00;98078.78;6253592;28;20318;-60
2023/10/03 02:37:16;;;;;;;15.57;9.53;;;;;;;11.40;100.00;98091.75;6254433;28;20235;-59
2023/10/03 02:40:22;;;;;;;16.00;9.80;;;;;;;11.33;100.00;98093.75;6255971;28;20238;-58
2023/10/03 02:43:29;;;;;;;14.97;9.40;;;;;;;11.33;100.00;98085.75;6240093;28;20242;-59
2023/10/03 02:46:33;;;;;;;16.67;10.70;;;;;;;11.41;100.00;98081.88;6252994;28;20323;-59
2023/10/03 02:49:36;;;;;;;15.07;10.07;;;;;;;11.36;100.00;98083.41;6240661;28;20281;-59
2023/10/03 02:52:39;;;;;;;12.07;9.73;;;;;;;11.36;100.00;98080.72;6243212;28;20248;-59
2023/10/03 02:55:44;;;;;;;17.83;10.40;;;;;;;11.26;100.00;98067.19;6263716;28;20720;-59
2023/10/03 02:58:47;;;;;;;13.13;9.97;;;;;;;11.32;100.00;98081.44;6256592;28;20207;-60
2023/10/03 03:01:52;;;;;;;13.27;8.57;;;;;;;11.29;100.00;98076.59;6258823;28;20227;-60
2023/10/03 03:04:55;;;;;;;16.63;10.37;;;;;;;11.24;100.00;98076.50;6244312;28;20261;-59
2023/10/03 03:08:00;;;;;;;14.17;10.07;;;;;;;11.14;100.00;98071.78;6240843;28;20215;-60
2023/10/03 03:11:05;;;;;;;14.33;9.60;;;;;;;11.15;100.00;98065.38;6237241;28;20235;-60
2023/10/03 03:14:07;;;;;;;15.70;9.70;;;;;;;11.10;100.00;98066.09;6259302;28;20591;-59
2023/10/03 03:17:14;;;;;;;14.90;10.33;;;;;;;10.93;100.00;98048.38;6259183;28;20326;-60
2023/10/03 03:20:24;;;;;;;13.43;9.97;;;;;;;11.03;100.00;98049.44;6259007;28;20231;-60
2023/10/03 03:23:35;;;;;;;16.73;10.10;;;;;;;11.04;100.00;98059.03;6258670;28;20231;-60
2023/10/03 03:26:47;;;;;;;17.83;10.60;;;;;;;11.07;100.00;98061.22;6261052;28;20231;-59
2023/10/03 03:33:11;;;;;;;14.37;9.53;;;;;;;10.82;100.00;98032.19;6256673;28;20581;-60
2023/10/03 03:36:19;;;;;;;16.17;10.30;;;;;;;10.88;100.00;98035.75;6256720;28;20215;-60
2023/10/03 03:39:21;;;;;;;17.90;11.37;;;;;;;11.00;100.00;98055.22;6261884;28;20271;-57
2023/10/03 03:42:25;;;;;;;18.00;11.23;;;;;;;10.91;100.00;98045.97;6256943;28;20944;-60
2023/10/03 03:45:27;;;;;;;15.27;10.70;;;;;;;10.89;100.00;98041.91;6258373;28;21332;-59
2023/10/03 03:48:33;;;;;;;16.80;11.00;;;;;;;10.82;100.00;98037.50;6257625;28;20328;-60
2023/10/03 03:51:37;;;;;;;18.67;11.73;;;;;;;10.88;100.00;98038.41;6256556;28;20239;-59
2023/10/03 03:54:40;;;;;;;16.70;10.27;;;;;;;10.87;100.00;98041.31;6258003;28;20272;-60
2023/10/03 03:57:42;;;;;;;15.10;10.93;;;;;;;10.75;100.00;98018.19;6255641;28;20231;-58
2023/10/03 04:00:49;;;;;;;15.20;10.47;;;;;;;10.85;100.00;98034.38;6253598;28;20629;-58
2023/10/03 04:03:58;;;;;;;16.03;10.13;;;;;;;10.81;100.00;98029.75;6257483;28;20369;-59
2023/10/03 04:07:03;;;;;;;16.57;10.13;;;;;;;10.77;100.00;98026.75;6256069;28;20250;-60
2023/10/03 04:10:13;;;;;;;16.47;11.17;;;;;;;10.75;100.00;98039.50;6259295;28;20234;-59
2023/10/03 04:13:17;;;;;;;18.00;10.93;;;;;;;10.68;100.00;98014.00;6256746;28;20248;-59
2023/10/03 04:16:21;;;;;;;15.70;10.70;;;;;;;10.70;100.00;98028.72;6258229;28;20337;-60
2023/10/03 04:19:23;;;;;;;16.40;11.60;;;;;;;10.74;100.00;98027.22;6263180;28;20273;-60
2023/10/03 04:22:30;;;;;;;14.33;10.87;;;;;;;10.72;100.00;98026.63;6262214;28;20305;-58
2023/10/03 04:25:33;;;;;;;17.33;11.30;;;;;;;10.70;100.00;98023.41;6258651;28;20243;-57
2023/10/03 04:28:37;;;;;;;16.33;11.67;;;;;;;10.68;100.00;98028.13;6253275;28;20738;-60
2023/10/03 04:31:40;;;;;;;14.97;10.70;;;;;;;10.66;100.00;98027.56;6255759;28;20227;-60
2023/10/03 04:34:42;;;;;;;14.33;11.10;;;;;;;10.66;100.00;98030.22;6256393;28;20230;-60
2023/10/03 04:37:46;;;;;;;14.10;10.50;;;;;;;10.61;100.00;98026.66;6256417;28;20258;-61
2023/10/03 04:40:48;;;;;;;17.67;11.37;;;;;;;10.65;100.00;98031.28;6255336;28;20597;-60
2023/10/03 04:43:51;;;;;;;17.23;11.60;;;;;;;10.61;100.00;98035.47;6255444;28;20237;-58
2023/10/03 04:46:53;;;;;;;17.70;11.67;;;;;;;10.58;100.00;98033.25;6255595;28;20270;-60
2023/10/03 04:50:00;;;;;;;16.47;11.37;;;;;;;10.56;100.00;98035.34;6252913;28;20233;-59
2023/10/03 04:53:03;;;;;;;17.00;10.97;;;;;;;10.53;100.00;98035.78;6252817;28;20611;-59
2023/10/03 04:56:06;;;;;;;14.23;10.37;;;;;;;10.52;100.00;98040.31;6256920;28;20242;-58
2023/10/03 04:59:08;;;;;;;16.70;12.07;;;;;;;10.50;100.00;98038.94;6256528;28;20241;-59
2023/10/03 05:02:11;;;;;;;15.87;10.97;;;;;;;10.49;100.00;98040.81;6254802;28;20241;-59
2023/10/03 05:05:16;;;;;;;18.60;10.63;;;;;;;10.42;100.00;98039.28;6255972;28;20242;-60
2023/10/03 05:08:18;;;;;;;16.87;10.60;;;;;;;10.43;100.00;98038.22;6254832;28;20231;-61
2023/10/03 05:11:21;;;;;;;13.77;10.20;;;;;;;10.45;100.00;98038.84;6259369;28;20238;-60
2023/10/03 05:14:23;;;;;;;14.93;10.33;;;;;;;10.46;100.00;98051.09;6255609;28;20227;-55
2023/10/03 05:17:26;;;;;;;15.63;10.33;;;;;;;10.46;100.00;98051.91;6238323;28;20273;-59
2023/10/03 05:20:37;;;;;;;14.47;10.23;;;;;;;10.42;100.00;98049.94;6254698;28;20239;-58
2023/10/03 05:23:41;;;;;;;15.57;11.03;;;;;;;10.40;100.00;98058.16;6254412;28;20239;-59
2023/10/03 05:26:43;;;;;;;14.87;10.43;;;;;;;10.36;100.00;98061.53;6256961;28;20363;-56
2023/10/03 05:29:46;;;;;;;15.40;11.10;;;;;;;10.39;100.00;98053.84;6254659;28;20238;-61
2023/10/03 05:32:48;;;;;;;14.97;9.90;;;;;;;10.42;100.00;98049.94;6255346;28;20257;-59
2023/10/03 05:35:50;;;;;;;12.97;9.80;;;;;;;10.46;100.00;98053.75;6254816;28;20230;-60
2023/10/03 05:38:53;;;;;;;15.77;10.57;;;;;;;10.40;100.00;98042.19;6253511;28;20625;-60
2023/10/03 05:41:56;;;;;;;13.63;9.70;;;;;;;10.44;100.00;98053.16;6255474;28;20245;-60
2023/10/03 05:44:58;;;;;;;17.00;10.43;;;;;;;10.41;100.00;98054.44;6256847;28;20238;-57
2023/10/03 05:48:02;;;;;;;15.77;10.50;;;;;;;10.44;100.00;98055.81;6253135;28;20241;-58
2023/10/03 05:51:05;;;;;;;15.77;10.90;;;;;;;10.47;100.00;98068.69;6233970;28;20899;-60
2023/10/03 05:54:08;;;;;;;16.60;11.20;;;;;;;10.44;100.00;98062.00;6252384;28;20602;-60
2023/10/03 05:57:11;;;;;;;17.00;11.27;;;;;;;10.45;100.00;98058.28;6254715;28;20598;-60
2023/10/03 06:00:21;;;;;;;15.93;11.33;;;;;;;10.50;100.00;98061.06;6253020;28;20230;-61
2023/10/03 06:03:23;;;;;;;16.73;11.17;;;;;;;10.55;100.00;98060.38;6252715;28;20234;-59
2023/10/03 06:06:28;;;;;;;17.27;11.13;;;;;;;10.61;100.00;98062.09;6255220;28;20241;-60
2023/10/03 06:09:30;;;;;;;15.53;10.90;;;;;;;10.69;100.00;98071.56;6252858;28;20700;-58
2023/10/03 06:12:33;;;;;;;16.37;10.27;;;;;;;10.67;100.00;98069.16;6253198;28;20215;-59
2023/10/03 06:15:40;;;;;;;14.37;10.40;;;;;;;10.70;100.00;98076.69;6252095;28;20226;-59
2023/10/03 06:18:42;;;;;;;14.80;10.43;;;;;;;10.73;100.00;98080.72;6252418;28;20230;-60
2023/10/03 06:21:46;;;;;;;15.07;10.80;;;;;;;10.71;100.00;98077.50;6254120;28;20222;-59
2023/10/03 06:24:50;;;;;;;14.93;10.77;;;;;;;10.79;100.00;98077.16;6254132;28;20232;-59
2023/10/03 06:27:52;;;;;;;16.80;10.50;;;;;;;10.74;100.00;98064.53;6255788;28;20277;-60
2023/10/03 06:30:55;;;;;;;15.47;9.87;;;;;;;10.87;100.00;98081.31;6254220;28;20236;-60
2023/10/03 06:33:58;;;;;;;15.73;10.60;;;;;;;10.88;100.00;98073.06;6254554;28;20901;-60
2023/10/03 06:37:00;;;;;;;16.20;10.70;;;;;;;10.96;100.00;98082.56;6250863;28;20237;-59
2023/10/03 06:40:06;;;;;;;15.77;10.03;;;;;;;11.00;100.00;98067.75;6252562;28;20723;-60
2023/10/03 06:43:09;;;;;;;13.50;9.97;;;;;;;11.05;100.00;98073.97;6254106;28;20324;-60
2023/10/03 06:46:11;;;;;;;13.03;10.23;;;;;;;11.11;100.00;98067.69;6252501;28;20235;-59
2023/10/03 06:49:17;;;;;;;12.73;9.47;;;;;;;11.16;100.00;98076.84;6253483;28;20241;-59
2023/10/03 06:52:19;;;;;;;10.97;8.53;;;;;;;11.22;100.00;98078.56;6251335;28;20235;-59
2023/10/03 06:55:21;;;;;;;13.77;9.70;;;;;;;11.27;100.00;98076.81;6254045;28;20239;-57
2023/10/03 06:58:24;;;;;;;11.93;8.47;;;;;;;11.32;100.00;98078.78;6252775;28;20234;-60
2023/10/03 07:01:26;;;;;;;14.83;9.63;;;;;;;11.36;100.00;98079.94;6253708;28;20237;-57
2023/10/03 07:04:29;;;;;;;12.23;9.00;;;;;;;11.46;100.00;98088.13;6253423;28;20238;-58
2023/10/03 07:07:34;;;;;;;11.70;9.27;;;;;;;11.51;100.00;98084.75;6251701;28;20245;-60
2023/10/03 07:10:37;;;;;;;14.67;9.67;;;;;;;11.60;100.00;98086.81;6252727;28;20239;-59
2023/10/03 07:13:39;;;;;;;13.33;9.90;;;;;;;11.59;100.00;98076.38;6253278;28;20287;-58
2023/10/03 07:16:42;;;;;;;14.37;10.37;;;;;;;11.78;100.00;98090.34;6250825;28;20238;-59
2023/10/03 07:19:48;;;;;;;13.30;9.10;;;;;;;11.81;100.00;98087.19;6255117;28;20245;-58
2023/10/03 07:22:50;;;;;;;11.93;8.57;;;;;;;11.96;100.00;98089.34;6255198;28;20713;-59
2023/10/03 07:25:53;;;;;;;13.93;10.70;;;;;;;12.08;100.00;98088.25;6257264;28;20230;-57
2023/10/03 07:28:58;;;;;;;15.47;10.63;;;;;;;12.10;100.00;98078.09;6253337;28;20235;-59
2023/10/03 07:32:03;;;;;;;14.30;10.33;;;;;;;12.33;100.00;98087.03;6257660;28;20322;-59
2023/10/03 07:35:10;;;;;;;13.70;9.90;;;;;;;12.47;100.00;98096.34;6257270;28;20316;-59
2023/10/03 07:38:14;;;;;;;14.07;9.67;;;;;;;12.64;100.00;98102.47;6234520;28;20365;-58
2023/10/03 07:41:21;;;;;;;13.43;10.47;;;;;;;12.74;100.00;98085.78;6257995;28;20223;-59
2023/10/03 07:44:25;;;;;;;12.13;9.07;;;;;;;12.96;100.00;98101.06;6254734;28;20227;-59
2023/10/03 07:47:28;;;;;;;11.33;9.20;;;;;;;13.00;100.00;98091.47;6256833;28;20231;-59
2023/10/03 07:50:31;;;;;;;16.10;9.67;;;;;;;13.11;100.00;98082.56;6256110;28;20242;-59
2023/10/03 07:53:36;;;;;;;15.77;11.13;;;;;;;13.40;100.00;98102.75;6255730;28;20321;-59
2023/10/03 07:56:42;;;;;;;16.40;10.93;;;;;;;13.50;100.00;98087.88;6252292;28;20224;-59
2023/10/03 07:59:44;;;;;;;14.37;11.77;;;;;;;13.71;100.00;98096.94;6264565;28;20235;-59
2023/10/03 08:02:49;;;;;;;15.17;11.20;;;;;;;13.84;100.00;98100.03;6240212;28;20276;-59
2023/10/03 08:05:57;;;;;;;17.37;11.63;;;;;;;13.94;100.00;98093.97;6256727;28;20243;-56
2023/10/03 08:09:00;;;;;;;12.53;9.93;;;;;;;14.02;100.00;98090.81;6237385;28;20239;-58
2023/10/03 08:12:11;;;;;;;13.23;9.40;;;;;;;14.25;100.00;98103.09;6258603;28;20295;-58
2023/10/03 08:15:17;;;;;;;15.40;10.50;;;;;;;14.38;100.00;98096.47;6242990;28;20209;-59
2023/10/03 08:18:19;;;;;;;16.40;11.43;;;;;;;14.54;100.00;98100.94;6255364;28;20677;-58
2023/10/03 08:21:22;;;;;;;18.57;12.23;;;;;;;14.67;100.00;98099.69;6255412;28;20231;-59
2023/10/03 08:24:25;;;;;;;16.53;11.13;;;;;;;14.79;100.00;98100.31;6256115;28;20242;-56
2023/10/03 08:27:30;;;;;;;18.67;12.47;;;;;;;14.94;100.00;98096.91;6256188;28;20648;-59
2023/10/03 08:30:35;;;;;;;17.60;11.20;;;;;;;15.11;100.00;98091.34;6259690;28;20318;-56
2023/10/03 08:33:37;;;;;;;19.37;11.57;;;;;;;15.25;100.00;98089.00;6253563;28;20234;-58
2023/10/03 08:36:39;;;;;;;16.50;10.90;;;;;;;15.40;100.00;98092.56;6252152;28;20297;-58
2023/10/03 08:39:42;;;;;;;16.83;11.07;;;;;;;15.53;100.00;98093.97;6251539;28;20234;-58
2023/10/03 08:42:52;;;;;;;16.10;10.70;;;;;;;15.64;100.00;98082.22;6254906;28;20735;-57
2023/10/03 08:45:56;;;;;;;17.53;10.77;;;;;;;15.86;100.00;98089.22;6265423;28;20242;-59
2023/10/03 08:49:07;;;;;;;15.63;10.57;;;;;;;16.00;100.00;98093.81;6252671;28;20227;-58
2023/10/03 08:52:11;;;;;;;18.93;11.90;;;;;;;16.10;100.00;98092.22;6254154;28;20227;-59
2023/10/03 08:55:15;;;;;;;13.90;9.60;;;;;;;16.23;100.00;98092.50;6256742;28;20211;-58
2023/10/03 08:58:25;;;;;;;15.57;10.03;;;;;;;16.34;100.00;98095.22;6256060;28;20254;-59
2023/10/03 09:01:33;;;;;;;17.47;10.20;;;;;;;16.44;100.00;98096.00;6256491;28;20241;-58
2023/10/03 09:04:38;;;;;;;15.40;9.67;;;;;;;16.58;100.00;98093.59;6250395;28;20227;-59
2023/10/03 09:07:46;;;;;;;12.37;9.20;;;;;;;16.65;100.00;98079.84;6254932;28;20243;-59
2023/10/03 09:10:51;;;;;;;16.80;10.07;;;;;;;16.86;100.00;98091.44;6252369;28;20231;-59
2023/10/03 09:13:59;;;;;;;16.93;9.93;;;;;;;16.97;100.00;98084.94;6255991;28;20240;-59
2023/10/03 09:17:05;;;;;;;16.27;10.07;;;;;;;17.16;100.00;98096.75;6253286;28;20312;-60
2023/10/03 09:20:08;;;;;;;15.10;9.60;;;;;;;17.30;100.00;98088.09;6254849;28;20304;-58
2023/10/03 09:23:14;;;;;;;16.97;9.80;;;;;;;17.42;100.00;98085.88;6255174;28;20650;-59
2023/10/03 09:26:19;;;;;;;12.43;9.37;;;;;;;17.54;100.00;98091.75;6256553;28;20235;-58
2023/10/03 09:29:29;;;;;;;14.23;9.17;;;;;;;17.66;100.00;98094.91;6255260;28;20234;-58
2023/10/03 09:32:39;;;;;;;20.40;11.07;;;;;;;17.80;97.72;98081.69;6253240;28;20227;-59
2023/10/03 09:35:56;;;;;;;16.30;10.03;;;;;;;17.97;96.59;98086.69;6253839;28;20231;-59
2023/10/03 09:38:59;;;;;;;18.03;10.00;;;;;;;18.10;94.66;98083.38;6256352;28;20231;-59
2023/10/03 09:42:03;;;;;;;16.27;10.30;;;;;;;18.21;94.34;98084.09;6253749;28;20736;-58
2023/10/03 09:45:06;;;;;;;13.13;9.40;;;;;;;18.35;91.72;98087.75;6256381;28;20235;-59
2023/10/03 09:48:11;;;;;;;15.60;9.90;;;;;;;18.48;91.39;98087.13;6253756;28;20266;-58
2023/10/03 09:51:13;;;;;;;15.43;9.53;;;;;;;18.59;89.53;98084.34;6254984;28;20222;-59
2023/10/03 09:54:35;;;;;;;14.43;10.07;;;;;;;18.76;86.80;98088.22;6254556;28;20223;-59
2023/10/03 09:57:38;;;;;;;20.37;10.23;;;;;;;18.94;84.81;98077.81;6252015;28;20223;-59
2023/10/03 10:00:50;;;;;;;16.47;9.30;;;;;;;19.10;83.74;98089.25;6233217;28;20227;-58
2023/10/03 10:03:59;;;;;;;12.37;8.50;;;;;;;19.15;82.65;98076.50;6253654;28;20262;-59
2023/10/03 10:07:16;;;;;;;18.90;9.77;;;;;;;19.26;84.32;98071.75;6254506;28;20227;-59
2023/10/03 10:10:19;;;;;;;12.33;8.90;;;;;;;19.38;83.75;98082.97;6253968;28;20603;-58
2023/10/03 10:13:22;;;;;;;15.43;9.70;;;;;;;19.51;82.40;98081.47;6255056;28;20227;-59
2023/10/03 10:16:28;;;;;;;14.43;8.97;;;;;;;19.65;80.49;98076.16;6256286;28;20234;-59
2023/10/03 10:20:09;;;;;;;18.27;9.83;;;;;;;19.84;79.69;98074.28;6253838;28;20246;-57
2023/10/03 10:26:29;;;;;;;15.30;9.33;;;;;;;20.07;79.18;98068.00;6253836;28;20325;-58
2023/10/03 10:29:35;;;;;;;15.33;8.60;;;;;;;20.10;79.68;98066.63;6237415;28;20227;-59
2023/10/03 10:32:38;;;;;;;13.63;9.07;;;;;;;20.15;78.28;98063.84;6254298;28;20231;-59
2023/10/03 10:36:10;;;;;;;15.00;8.77;;;;;;;20.28;76.68;98056.84;6253602;28;20728;-59
2023/10/03 10:39:13;;;;;;;19.83;9.93;;;;;;;20.49;72.84;98062.75;6251845;28;20712;-59
2023/10/03 10:42:16;;;;;;;16.03;9.77;;;;;;;20.57;70.30;98046.63;6244005;28;20594;-59
2023/10/03 10:45:20;;;;;;;15.43;8.80;;;;;;;20.67;70.84;98040.25;6252501;28;20239;-59
2023/10/03 10:48:41;;;;;;;19.83;10.10;;;;;;;20.86;71.23;98046.38;6252676;28;20703;-58
2023/10/03 10:51:55;;;;;;;16.60;9.20;;;;;;;21.02;68.94;98046.09;6254983;28;20234;-59
2023/10/03 10:54:59;;;;;;;16.13;8.57;;;;;;;21.12;68.08;98045.88;6250669;28;20223;-58
2023/10/03 10:58:12;;;;;;;15.27;9.33;;;;;;;21.15;69.63;98044.50;6257386;28;20341;-59
2023/10/03 11:01:14;;;;;;;16.67;8.37;;;;;;;21.28;66.22;98038.25;6262673;28;20238;-59
2023/10/03 11:04:23;;;;;;;14.37;8.90;;;;;;;21.29;67.47;98043.38;6256634;28;20231;-58
2023/10/03 11:07:27;;;;;;;14.80;8.80;;;;;;;21.37;66.88;98034.56;6258523;28;20248;-58
2023/10/03 11:10:29;;;;;;;16.03;9.10;;;;;;;21.44;68.32;98036.88;6256672;28;20242;-59
2023/10/03 11:13:50;;;;;;;15.93;8.97;;;;;;;21.48;70.75;98032.47;6255374;28;20219;-57
2023/10/03 11:16:53;;;;;;;16.43;9.60;;;;;;;21.57;66.82;98032.50;6260446;28;20227;-57
2023/10/03 11:19:55;;;;;;;13.20;9.30;;;;;;;21.70;66.83;98014.63;6256601;28;20635;-59
2023/10/03 11:22:57;;;;;;;12.67;8.70;;;;;;;21.79;64.70;98016.28;6256641;28;20227;-58
2023/10/03 11:26:01;;;;;;;15.30;9.03;;;;;;;21.85;64.47;98012.34;6256161;28;20368;-58
2023/10/03 11:29:05;;;;;;;12.00;8.33;;;;;;;21.94;66.76;98019.75;6257761;28;20317;-59
2023/10/03 11:32:32;;;;;;;13.30;8.67;;;;;;;22.02;63.82;98011.69;6253880;28;20647;-59
2023/10/03 11:35:35;;;;;;;16.03;9.73;;;;;;;22.14;63.22;98008.44;6257678;28;20234;-59
2023/10/03 11:38:49;;;;;;;14.93;9.07;;;;;;;22.31;61.98;98005.84;6257088;28;20815;-59
2023/10/03 11:41:52;;;;;;;12.77;8.00;;;;;;;22.37;61.65;97995.66;6257044;28;20246;-58
2023/10/03 11:45:00;;;;;;;15.77;8.70;;;;;;;22.39;63.20;97991.50;6257375;28;20712;-59
2023/10/03 11:48:10;;;;;;;14.43;9.47;;;;;;;22.50;61.54;97983.09;6262670;28;20353;-59
2023/10/03 11:51:13;;;;;;;14.70;9.63;;;;;;;22.69;60.72;97980.97;6252580;28;20593;-59
2023/10/03 11:54:15;;;;;;;13.33;8.40;;;;;;;22.77;60.41;97977.47;6256933;28;20685;-58
2023/10/03 11:57:18;;;;;;;14.50;8.73;;;;;;;22.78;61.90;97976.38;6256028;28;20230;-58
2023/10/03 12:00:24;;;;;;;12.47;8.80;;;;;;;22.78;62.37;97973.66;6257149;28;20223;-58
2023/10/03 12:03:30;;;;;;;13.53;8.83;;;;;;;22.76;62.63;97981.31;6253452;28;20226;-59
2023/10/03 12:06:32;;;;;;;12.23;8.43;;;;;;;22.67;63.84;97959.56;6257466;28;20235;-61
2023/10/03 12:09:35;;;;;;;11.60;8.75;;;;;;;22.76;64.43;97977.78;6256130;28;20727;-58
2023/10/03 12:12:38;;;;;;;13.37;8.80;;;;;;;22.81;63.19;97964.88;6254574;28;20612;-59
2023/10/03 12:15:42;;;;;;;12.05;8.65;;;;;;;22.83;62.89;97959.91;6256283;28;20218;-58
2023/10/03 12:18:45;;;;;;;14.05;8.70;;;;;;;22.90;62.72;97962.19;6256859;28;20234;-59
2023/10/03 12:21:47;;;;;;;16.85;9.65;;;;;;;22.98;62.87;97957.91;6254109;28;20227;-58
2023/10/03 12:24:49;;;;;;;13.30;8.80;;;;;;;23.00;62.79;97952.97;6260957;28;20223;-59
2023/10/03 12:27:51;;;;;;;12.70;8.27;;;;;;;23.00;64.14;97952.97;6260382;28;20934;-57
2023/10/03 12:30:54;;;;;;;12.88;8.68;;;;;;;22.99;63.99;97951.38;6255755;28;20724;-58
2023/10/03 12:33:57;;;;;;;14.55;8.95;;;;;;;23.09;62.69;97956.50;6261687;28;20230;-59
2023/10/03 12:37:03;;;;;;;11.27;8.73;;;;;;;23.05;62.47;97933.78;6254725;28;20219;-59
2023/10/03 12:40:13;;;;;;;11.82;8.90;;;;;;;23.13;62.69;97938.44;6253114;28;20238;-57
2023/10/03 12:43:16;;;;;;;12.85;8.40;;;;;;;23.10;63.57;97937.19;6254522;28;20220;-59
2023/10/03 12:46:18;;;;;;;14.02;8.82;;;;;;;22.99;63.96;97914.13;6255307;28;20230;-58
2023/10/03 12:49:22;;;;;;;12.88;9.25;;;;;;;23.11;63.81;97932.53;6252231;28;20708;-59
2023/10/03 12:52:24;;;;;;;14.55;8.82;;;;;;;23.10;64.03;97931.75;6253935;28;20239;-59
2023/10/03 12:55:29;;;;;;;14.68;9.27;;;;;;;23.06;64.27;97927.25;6257139;28;20248;-59
2023/10/03 12:58:32;;;;;;;13.55;8.93;;;;;;;23.10;63.89;97933.63;6239114;28;20233;-59
2023/10/03 13:01:34;;;;;;;13.32;9.27;;;;;;;23.09;64.33;97924.69;6253904;28;20234;-59
2023/10/03 13:04:36;;;;;;;12.77;9.35;;;;;;;23.10;64.82;97925.47;6234037;28;21050;-59
2023/10/03 13:07:39;;;;;;;14.02;8.65;;;;;;;23.09;64.69;97921.16;6258912;28;20230;-59
2023/10/03 13:10:41;;;;;;;12.27;8.52;;;;;;;23.17;65.20;97923.91;6235887;28;20242;-59
2023/10/03 13:13:47;;;;;;;14.05;8.55;;;;;;;23.19;64.14;97929.00;6250964;28;20234;-58
2023/10/03 13:16:50;;;;;;;14.15;9.00;;;;;;;23.20;64.67;97927.09;6237441;28;20235;-60
2023/10/03 13:19:54;;;;;;;14.00;9.85;;;;;;;23.12;65.32;97912.41;6262185;28;20651;-59
2023/10/03 13:22:57;;;;;;;13.27;9.10;;;;;;;23.14;65.69;97923.72;6253687;28;20238;-59
2023/10/03 13:25:59;;;;;;;12.85;9.25;;;;;;;23.23;64.99;97908.25;6254491;28;20235;-59
2023/10/03 13:29:02;;;;;;;16.13;9.15;;;;;;;23.23;65.69;97916.41;6251714;28;20231;-59
2023/10/03 13:32:05;;;;;;;13.38;8.82;;;;;;;23.22;65.26;97911.28;6254741;28;20274;-59
2023/10/03 13:35:07;;;;;;;13.70;8.57;;;;;;;23.12;65.83;97907.75;6254546;28;20704;-59
2023/10/03 13:38:10;;;;;;;11.85;8.68;;;;;;;23.09;66.88;97905.66;6253323;28;20269;-57
2023/10/03 13:41:13;;;;;;;15.55;9.25;;;;;;;23.06;66.69;97903.59;6254032;28;20238;-59
2023/10/03 13:44:15;;;;;;;12.70;8.68;;;;;;;22.99;67.13;97897.81;6256519;28;20308;-59
2023/10/03 13:47:17;;;;;;;11.18;8.60;;;;;;;22.91;67.91;97891.25;6252178;28;20234;-56
2023/10/03 13:50:19;;;;;;;10.88;8.48;;;;;;;22.89;66.70;97892.69;6254413;28;20230;-59
2023/10/03 13:53:22;;;;;;;14.18;9.05;;;;;;;22.87;67.87;97898.41;6254908;28;20223;-56
2023/10/03 13:56:25;;;;;;;13.02;8.80;;;;;;;22.80;67.97;97894.53;6256954;28;20744;-59
2023/10/03 13:59:27;;;;;;;12.30;8.45;;;;;;;22.71;68.22;97902.69;6253951;28;20229;-59
2023/10/03 14:02:29;;;;;;;10.85;7.78;;;;;;;22.61;69.01;97894.81;6249081;28;20231;-59
2023/10/03 14:05:35;;;;;;;12.40;8.55;;;;;;;22.50;69.59;97894.31;6253957;28;20231;-59
2023/10/03 14:08:37;;;;;;;12.48;8.68;;;;;;;22.42;70.14;97889.66;6254377;28;20235;-59
2023/10/03 14:11:40;;;;;;;12.30;8.70;;;;;;;22.31;70.38;97886.41;6227957;28;20230;-59
2023/10/03 14:14:43;;;;;;;10.55;8.02;;;;;;;22.22;71.13;97891.03;6254556;28;20704;-59
2023/10/03 14:17:45;;;;;;;14.30;8.57;;;;;;;22.14;71.50;97887.13;6251332;28;20727;-57